Terminal Aerodrome Forecast
Issued by NWS Bismarck, ND

Home | Current Version | Previous Version | Graphics & Text | Print | Product List | Glossary On
Versions: 1 2 3 4 5 6 7 8 9 10 11 12 13 14 15 16 17 18 19
249
FTUS43 KBIS 040751 AAA
TAFISN
TAF AMD
KISN 040751Z 0408/0506 32011KT P6SM SCT025 BKN100
     FM041400 19006KT P6SM BKN150=

USA.gov is the U.S. government's official web portal to all federal, state and local government web resources and services.